Terminal Aerodrome Forecast
Issued by NWS

Home | Current Version | Previous Version | Text Only | Print | Product List | Glossary On
Versions: 1 2 3 4 5 6 7 8 9 10 11 12 13 14 15 16 17 18 19
980
FTUS43 KBIS 211731
TAFDIK
TAF
KDIK 211731Z 2118/2218 29013G21KT P6SM FEW250
     FM212000 29009KT P6SM FEW250
     FM220000 19004KT P6SM FEW250
     FM220900 18011KT P6SM BKN080
     FM221700 28018G28KT P6SM SCT200=

USA.gov is the U.S. government's official web portal to all federal, state and local government web resources and services.